createdAt,value
2023-09-22T00:00:12.267Z,81.99
2023-09-22T00:02:42.012Z,81.35
2023-09-22T00:05:11.078Z,81.28
2023-09-22T00:07:38.749Z,81.38
2023-09-22T00:10:07.394Z,83.58
2023-09-22T00:12:34.827Z,82.65
2023-09-22T00:15:02.501Z,81.80
2023-09-22T00:17:29.496Z,81.74
2023-09-22T00:19:56.517Z,81.80
2023-09-22T00:22:23.780Z,82.90
2023-09-22T00:24:51.777Z,81.95
2023-09-22T00:27:18.962Z,82.05
2023-09-22T00:29:45.902Z,82.40
2023-09-22T00:32:15.724Z,82.70
2023-09-22T00:34:42.689Z,82.28
2023-09-22T00:37:09.513Z,81.54
2023-09-22T00:39:36.610Z,82.19
2023-09-22T00:42:06.875Z,82.49
2023-09-22T00:44:33.857Z,82.70
2023-09-22T00:47:02.534Z,83.90
2023-09-22T00:49:31.227Z,83.69
2023-09-22T00:51:59.570Z,83.98
2023-09-22T00:54:27.071Z,83.05
2023-09-22T00:56:54.519Z,84.21
2023-09-22T00:59:23.399Z,85.35
2023-09-22T01:01:52.159Z,86.96
2023-09-22T01:04:21.253Z,86.08
2023-09-22T01:06:48.740Z,84.51
2023-09-22T01:09:15.663Z,83.65
2023-09-22T01:11:42.598Z,84.72
2023-09-22T01:14:09.401Z,84.67
2023-09-22T01:16:37.633Z,83.08
2023-09-22T01:19:15.629Z,83.51
2023-09-22T01:21:42.979Z,84.75
2023-09-22T01:24:13.640Z,84.22
2023-09-22T01:26:41.273Z,83.39
2023-09-22T01:29:09.244Z,83.61
2023-09-22T01:31:37.100Z,84.31
2023-09-22T01:34:04.935Z,84.44
2023-09-22T01:36:32.498Z,83.98
2023-09-22T01:39:00.459Z,84.08
2023-09-22T01:41:27.807Z,85.65
2023-09-22T01:43:54.818Z,84.66
2023-09-22T01:46:22.057Z,84.71
2023-09-22T01:48:49.044Z,84.39
2023-09-22T01:51:16.251Z,85.27
2023-09-22T01:53:43.044Z,84.12
2023-09-22T01:56:10.058Z,83.75
2023-09-22T01:58:37.093Z,83.22
2023-09-22T02:01:03.890Z,82.89
2023-09-22T02:03:31.346Z,84.11
2023-09-22T02:06:00.682Z,85.67
2023-09-22T02:08:27.529Z,84.41
2023-09-22T02:10:54.431Z,84.47
2023-09-22T02:13:21.200Z,85.45
2023-09-22T02:15:48.756Z,84.92
2023-09-22T02:18:16.046Z,84.25
2023-09-22T02:20:43.380Z,83.33
2023-09-22T02:23:10.564Z,82.96
2023-09-22T02:25:48.963Z,83.33
2023-09-22T02:28:15.689Z,83.31
2023-09-22T02:30:42.591Z,83.48
2023-09-22T02:33:09.741Z,83.24
2023-09-22T02:35:42.259Z,83.30
2023-09-22T02:38:09.370Z,82.81
2023-09-22T02:40:36.227Z,82.98
2023-09-22T02:43:04.549Z,83.25
2023-09-22T02:45:31.904Z,83.29
2023-09-22T02:47:58.971Z,84.25
2023-09-22T02:50:25.848Z,84.70
2023-09-22T02:52:52.645Z,85.82
2023-09-22T02:55:19.487Z,84.48
2023-09-22T02:57:48.538Z,84.17
2023-09-22T03:00:19.644Z,85.54
2023-09-22T03:02:47.394Z,85.64
2023-09-22T03:05:17.979Z,84.60
2023-09-22T03:07:49.003Z,84.33
2023-09-22T03:10:19.220Z,85.07
2023-09-22T03:12:46.408Z,85.84
2023-09-22T03:15:14.662Z,85.13
2023-09-22T03:17:43.029Z,84.20
2023-09-22T03:20:14.137Z,83.62
2023-09-22T03:22:41.998Z,83.63
2023-09-22T03:25:10.622Z,85.10
2023-09-22T03:27:39.555Z,84.31
2023-09-22T03:30:10.133Z,85.45
2023-09-22T03:32:40.597Z,83.90
2023-09-22T03:35:09.892Z,83.10
2023-09-22T03:37:38.732Z,83.48
2023-09-22T03:40:11.782Z,83.59
2023-09-22T03:42:38.625Z,84.63
2023-09-22T03:45:10.235Z,85.81
2023-09-22T03:47:38.048Z,84.72
2023-09-22T03:50:06.398Z,84.41
2023-09-22T03:52:33.547Z,84.46
2023-09-22T03:55:01.969Z,84.48
2023-09-22T03:57:29.931Z,83.96
2023-09-22T03:59:57.308Z,83.27
2023-09-22T04:02:24.215Z,84.67
2023-09-22T04:04:52.238Z,85.85
2023-09-22T04:07:18.900Z,84.71
2023-09-22T04:09:45.951Z,84.79
2023-09-22T04:12:13.385Z,85.99
2023-09-22T04:14:43.519Z,84.64
2023-09-22T04:17:11.027Z,85.54
2023-09-22T04:19:39.337Z,85.49
2023-09-22T04:22:08.842Z,84.70
2023-09-22T04:24:36.220Z,84.90
2023-09-22T04:27:10.140Z,85.53
2023-09-22T04:29:37.158Z,85.72
2023-09-22T04:32:06.438Z,86.21
2023-09-22T04:34:34.184Z,85.10
2023-09-22T04:37:06.128Z,84.57
2023-09-22T04:39:34.346Z,85.39
2023-09-22T04:42:02.242Z,84.78
2023-09-22T04:44:29.245Z,85.46
2023-09-22T04:46:56.337Z,85.50
2023-09-22T04:49:24.133Z,85.33
2023-09-22T04:51:53.291Z,85.31
2023-09-22T04:54:21.070Z,86.32
2023-09-22T04:56:48.089Z,85.09
2023-09-22T04:59:17.479Z,84.95
2023-09-22T05:01:44.819Z,83.47
2023-09-22T05:04:12.106Z,83.83
2023-09-22T05:06:39.395Z,85.37
2023-09-22T05:09:08.796Z,85.02
2023-09-22T05:11:36.093Z,85.09
2023-09-22T05:14:05.249Z,84.24
2023-09-22T05:16:32.661Z,83.87
2023-09-22T05:19:01.243Z,84.11
2023-09-22T05:21:28.208Z,84.67
2023-09-22T05:23:55.575Z,85.93
2023-09-22T05:26:23.393Z,86.20
2023-09-22T05:28:53.005Z,85.80
2023-09-22T05:31:20.508Z,86.05
2023-09-22T05:33:47.808Z,85.38
2023-09-22T05:36:14.797Z,86.08
2023-09-22T05:38:41.608Z,85.80
2023-09-22T05:41:10.020Z,85.60
2023-09-22T05:43:36.785Z,84.42
2023-09-22T05:46:05.120Z,84.44
2023-09-22T05:48:32.075Z,84.17
2023-09-22T05:51:00.804Z,85.72
2023-09-22T05:53:29.378Z,85.37
2023-09-22T05:56:06.086Z,84.67
2023-09-22T05:58:34.942Z,84.27
2023-09-22T06:01:10.058Z,84.46
2023-09-22T06:03:40.355Z,84.20
2023-09-22T06:06:09.406Z,84.00
2023-09-22T06:08:37.926Z,82.53
2023-09-22T06:11:05.622Z,83.95
2023-09-22T06:13:34.469Z,83.17
2023-09-22T06:16:02.274Z,83.54
2023-09-22T06:18:29.860Z,83.53
2023-09-22T06:20:58.293Z,83.76
2023-09-22T06:23:26.056Z,84.00
2023-09-22T06:25:57.238Z,83.85
2023-09-22T06:28:24.023Z,84.09
2023-09-22T06:30:51.257Z,84.80
2023-09-22T06:33:18.769Z,84.51
2023-09-22T06:35:46.415Z,84.57
2023-09-22T06:38:17.822Z,84.38
2023-09-22T06:40:46.338Z,84.38
2023-09-22T06:43:23.110Z,83.69
2023-09-22T06:45:54.576Z,83.88
2023-09-22T06:48:27.768Z,83.63
2023-09-22T06:50:59.379Z,85.24
2023-09-22T06:53:28.028Z,86.32
2023-09-22T06:56:07.494Z,85.32
2023-09-22T06:58:36.039Z,85.00
2023-09-22T07:01:13.575Z,84.58
2023-09-22T07:03:41.540Z,85.51
2023-09-22T07:06:11.746Z,85.09
2023-09-22T07:08:39.595Z,84.90
2023-09-22T07:11:11.450Z,83.75
2023-09-22T07:13:41.613Z,83.53
2023-09-22T07:16:08.828Z,84.94
2023-09-22T07:18:36.148Z,84.49
2023-09-22T07:21:03.323Z,83.72
2023-09-22T07:23:32.859Z,84.81
2023-09-22T07:26:08.130Z,82.81
2023-09-22T07:28:35.529Z,82.94
2023-09-22T07:31:12.632Z,83.48
2023-09-22T07:33:44.784Z,83.26
2023-09-22T07:36:13.188Z,82.69
2023-09-22T07:38:40.989Z,82.24
2023-09-22T07:41:07.947Z,82.32
2023-09-22T07:43:37.408Z,81.03
2023-09-22T07:46:07.919Z,81.83
2023-09-22T07:48:36.470Z,82.31
2023-09-22T07:51:03.304Z,82.59
2023-09-22T07:53:30.378Z,82.46
2023-09-22T07:56:00.955Z,80.57
2023-09-22T07:58:28.867Z,79.38
2023-09-22T08:00:56.058Z,80.60
2023-09-22T08:03:23.140Z,78.93
2023-09-22T08:05:51.363Z,78.26
2023-09-22T08:08:18.752Z,80.23
2023-09-22T08:10:45.919Z,78.20
2023-09-22T08:13:13.461Z,77.88
2023-09-22T08:15:40.930Z,79.72
2023-09-22T08:18:08.304Z,79.71
2023-09-22T08:20:35.961Z,78.93
2023-09-22T08:23:03.871Z,78.34
2023-09-22T08:25:31.983Z,76.69
2023-09-22T08:27:59.682Z,77.73
2023-09-22T08:30:26.813Z,75.57
2023-09-22T08:32:55.076Z,75.24
2023-09-22T08:35:22.213Z,75.19
2023-09-22T08:37:50.324Z,74.26
2023-09-22T08:40:18.922Z,75.82
2023-09-22T08:42:49.483Z,75.55
2023-09-22T08:45:17.106Z,76.27
2023-09-22T08:47:46.851Z,75.61
2023-09-22T08:50:15.631Z,74.26
2023-09-22T08:52:47.550Z,73.89
2023-09-22T08:55:15.655Z,75.69
2023-09-22T08:58:35.311Z,73.99
2023-09-22T09:01:04.372Z,72.65
2023-09-22T09:03:34.285Z,72.45
2023-09-22T09:06:07.789Z,71.79
2023-09-22T09:08:37.865Z,72.18
2023-09-22T09:11:10.140Z,71.43
2023-09-22T09:13:37.965Z,73.06
2023-09-22T09:16:09.324Z,74.81
2023-09-22T09:18:37.216Z,72.85
2023-09-22T09:21:12.648Z,72.23
2023-09-22T09:23:55.612Z,68.53
2023-09-22T09:26:29.031Z,71.12
2023-09-22T09:28:57.779Z,72.13
2023-09-22T09:31:47.656Z,74.70
2023-09-22T09:34:17.791Z,73.79
2023-09-22T09:36:44.769Z,70.92
2023-09-22T09:39:13.630Z,68.51
2023-09-22T09:41:44.016Z,66.44
2023-09-22T09:44:11.319Z,67.91
2023-09-22T09:46:40.776Z,66.18
2023-09-22T09:49:11.857Z,67.08
2023-09-22T09:51:41.283Z,64.99
2023-09-22T09:54:09.373Z,64.81
2023-09-22T09:56:40.326Z,64.69
2023-09-22T09:59:09.660Z,62.98
2023-09-22T10:01:38.819Z,61.99
2023-09-22T10:04:08.575Z,64.88
2023-09-22T10:06:46.143Z,63.85
2023-09-22T10:09:17.859Z,63.70
2023-09-22T10:11:44.896Z,67.15
2023-09-22T10:14:48.704Z,64.96
2023-09-22T10:17:23.354Z,65.97
2023-09-22T10:19:50.556Z,64.70
2023-09-22T10:22:17.322Z,63.74
2023-09-22T10:24:44.453Z,59.87
2023-09-22T10:27:15.930Z,63.62
2023-09-22T10:29:46.750Z,61.45
2023-09-22T10:32:19.845Z,62.44
2023-09-22T10:34:48.298Z,61.46
2023-09-22T10:37:19.425Z,63.12
2023-09-22T10:39:59.853Z,64.02
2023-09-22T10:42:28.345Z,64.39
2023-09-22T10:45:00.574Z,66.64
2023-09-22T10:48:00.780Z,61.38
2023-09-22T10:50:31.940Z,61.28
2023-09-22T10:53:05.363Z,59.61
2023-09-22T10:55:43.443Z,62.97
2023-09-22T10:58:16.040Z,60.74
2023-09-22T11:01:00.917Z,58.84
2023-09-22T11:03:29.405Z,58.81
2023-09-22T11:06:09.330Z,60.72
2023-09-22T11:08:49.192Z,61.02
2023-09-22T11:11:20.374Z,61.45
2023-09-22T11:13:58.380Z,58.60
2023-09-22T11:16:28.373Z,58.82
2023-09-22T11:19:06.533Z,60.32
2023-09-22T11:21:40.885Z,58.71
2023-09-22T11:24:09.488Z,59.81
2023-09-22T11:26:43.579Z,56.92
2023-09-22T11:29:10.981Z,57.46
2023-09-22T11:31:57.907Z,55.29
2023-09-22T11:34:26.113Z,56.98
2023-09-22T11:36:54.295Z,58.49
2023-09-22T11:39:31.982Z,57.30
2023-09-22T11:41:59.303Z,57.42
2023-09-22T11:44:26.258Z,60.53
2023-09-22T11:46:53.608Z,54.70
2023-09-22T11:49:22.284Z,52.79
2023-09-22T11:51:59.893Z,52.95
2023-09-22T11:54:30.724Z,52.93
2023-09-22T11:56:59.530Z,52.95
2023-09-22T11:59:29.317Z,51.05
2023-09-22T12:01:56.575Z,50.31
2023-09-22T12:04:24.450Z,51.96
2023-09-22T12:06:52.445Z,52.24
2023-09-22T12:09:20.012Z,53.28
2023-09-22T12:11:48.406Z,53.65
2023-09-22T12:14:15.654Z,50.61
2023-09-22T12:16:42.734Z,50.54
2023-09-22T12:19:09.683Z,49.79
2023-09-22T12:21:36.869Z,49.48
2023-09-22T12:24:04.093Z,48.89
2023-09-22T12:26:32.311Z,47.75
2023-09-22T12:28:59.585Z,46.81
2023-09-22T12:31:27.912Z,48.27
2023-09-22T12:33:56.013Z,48.28
2023-09-22T12:36:22.757Z,47.64
2023-09-22T12:38:49.515Z,47.01
2023-09-22T12:41:16.229Z,46.13
2023-09-22T12:43:43.168Z,48.51
2023-09-22T12:46:13.961Z,46.20
2023-09-22T12:48:41.212Z,45.67
2023-09-22T12:51:12.584Z,46.83
2023-09-22T12:53:39.766Z,45.62
2023-09-22T12:56:07.516Z,45.46
2023-09-22T12:58:35.976Z,44.99
2023-09-22T13:01:06.086Z,45.96
2023-09-22T13:03:35.298Z,43.98
2023-09-22T13:06:04.747Z,45.10
2023-09-22T13:08:34.401Z,44.72
2023-09-22T13:11:03.268Z,45.20
2023-09-22T13:13:31.666Z,44.97
2023-09-22T13:15:59.455Z,44.18
2023-09-22T13:18:26.463Z,47.03
2023-09-22T13:20:53.247Z,50.16
2023-09-22T13:23:20.817Z,48.15
2023-09-22T13:25:48.204Z,48.87
2023-09-22T13:28:17.052Z,46.83
2023-09-22T13:30:55.022Z,44.71
2023-09-22T13:33:23.160Z,42.27
2023-09-22T13:35:53.449Z,45.23
2023-09-22T13:38:20.685Z,44.04
2023-09-22T13:40:51.640Z,44.57
2023-09-22T13:43:18.741Z,43.09
2023-09-22T13:45:45.530Z,45.60
2023-09-22T13:48:12.444Z,46.67
2023-09-22T13:50:40.188Z,46.63
2023-09-22T13:53:09.515Z,44.50
2023-09-22T13:55:40.395Z,48.38
2023-09-22T13:58:08.178Z,44.81
2023-09-22T14:00:35.971Z,42.44
2023-09-22T14:03:03.954Z,48.74
2023-09-22T14:05:33.009Z,47.98
2023-09-22T14:08:01.068Z,46.77
2023-09-22T14:10:29.266Z,48.76
2023-09-22T14:12:56.634Z,47.68
2023-09-22T14:15:24.096Z,45.63
2023-09-22T14:17:52.530Z,45.99
2023-09-22T14:20:23.105Z,47.33
2023-09-22T14:22:51.510Z,47.22
2023-09-22T14:25:19.855Z,49.70
2023-09-22T14:27:46.809Z,48.97
2023-09-22T14:30:14.117Z,48.73
2023-09-22T14:32:40.960Z,52.29
2023-09-22T14:35:08.488Z,52.79
2023-09-22T14:37:35.387Z,53.07
2023-09-22T14:40:03.054Z,49.51
2023-09-22T14:42:30.087Z,48.42
2023-09-22T14:44:57.126Z,49.64
2023-09-22T14:47:24.033Z,47.77
2023-09-22T14:49:52.470Z,48.59
2023-09-22T14:52:19.856Z,47.97
2023-09-22T14:54:46.571Z,49.11
2023-09-22T14:57:13.386Z,53.28
2023-09-22T14:59:41.062Z,50.96
2023-09-22T15:02:08.448Z,50.24
2023-09-22T15:04:35.360Z,50.65
2023-09-22T15:07:03.092Z,52.52
2023-09-22T15:09:31.088Z,55.28
2023-09-22T15:11:58.766Z,54.57
2023-09-22T15:14:28.700Z,54.39
2023-09-22T15:16:57.490Z,55.52
2023-09-22T15:19:24.567Z,55.02
2023-09-22T15:21:52.671Z,55.09
2023-09-22T15:24:19.450Z,56.16
2023-09-22T15:26:47.342Z,56.36
2023-09-22T15:29:17.856Z,57.33
2023-09-22T15:31:44.938Z,58.64
2023-09-22T15:34:22.649Z,60.13
2023-09-22T15:36:55.760Z,60.21
2023-09-22T15:39:26.024Z,60.77
2023-09-22T15:41:53.585Z,61.08
2023-09-22T15:44:20.471Z,63.16
2023-09-22T15:46:47.355Z,61.85
2023-09-22T15:49:15.869Z,62.88
2023-09-22T15:51:42.908Z,62.91
2023-09-22T15:54:13.215Z,62.83
2023-09-22T15:56:40.132Z,62.80
2023-09-22T15:59:07.111Z,63.20
2023-09-22T16:01:34.127Z,63.03
2023-09-22T16:04:01.073Z,63.89
2023-09-22T16:06:27.818Z,63.85
2023-09-22T16:08:54.732Z,64.90
2023-09-22T16:11:21.478Z,64.45
2023-09-22T16:13:48.355Z,65.22
2023-09-22T16:16:15.122Z,65.45
2023-09-22T16:18:42.744Z,65.69
2023-09-22T16:21:11.099Z,66.37
2023-09-22T16:23:37.864Z,67.34
2023-09-22T16:26:06.422Z,67.18
2023-09-22T16:28:34.566Z,68.48
2023-09-22T16:31:02.132Z,68.89
2023-09-22T16:33:30.464Z,69.89
2023-09-22T16:35:58.876Z,71.61
2023-09-22T16:38:30.500Z,71.76
2023-09-22T16:40:58.144Z,73.49
2023-09-22T16:43:33.561Z,73.60
2023-09-22T16:46:00.591Z,74.54
2023-09-22T16:48:27.401Z,73.46
2023-09-22T16:50:54.538Z,73.35
2023-09-22T16:53:21.654Z,73.52
2023-09-22T16:55:48.830Z,74.10
2023-09-22T16:58:15.825Z,74.66
2023-09-22T17:00:42.843Z,76.50
2023-09-22T17:03:09.957Z,76.84
2023-09-22T17:05:37.134Z,76.14
2023-09-22T17:08:05.689Z,75.85
2023-09-22T17:10:35.057Z,75.59
2023-09-22T17:13:01.945Z,76.48
2023-09-22T17:15:29.091Z,77.04
2023-09-22T17:17:56.530Z,76.76
2023-09-22T17:20:23.455Z,76.86
2023-09-22T17:22:50.815Z,78.18
2023-09-22T17:25:17.782Z,76.93
2023-09-22T17:27:44.664Z,76.66
2023-09-22T17:30:12.389Z,77.91
2023-09-22T17:32:39.573Z,77.55
2023-09-22T17:35:07.111Z,77.61
2023-09-22T17:37:33.953Z,77.57
2023-09-22T17:40:01.160Z,77.65
2023-09-22T17:42:28.077Z,78.33
2023-09-22T17:44:54.860Z,77.92
2023-09-22T17:47:21.801Z,77.77
2023-09-22T17:49:48.857Z,77.76
2023-09-22T17:52:15.949Z,78.25
2023-09-22T17:54:43.515Z,78.18
2023-09-22T17:57:10.572Z,78.59
2023-09-22T17:59:40.202Z,80.05
2023-09-22T18:02:07.653Z,79.73
2023-09-22T18:04:35.031Z,79.30
2023-09-22T18:07:02.097Z,78.37
2023-09-22T18:09:30.395Z,78.83
2023-09-22T18:11:57.790Z,80.28
2023-09-22T18:14:25.536Z,80.35
2023-09-22T18:16:52.387Z,79.88
2023-09-22T18:19:22.276Z,80.48
2023-09-22T18:21:50.960Z,79.23
2023-09-22T18:24:18.149Z,79.65
2023-09-22T18:26:44.901Z,79.45
2023-09-22T18:29:11.751Z,80.27
2023-09-22T18:31:39.404Z,82.14
2023-09-22T18:34:09.222Z,80.75
2023-09-22T18:36:36.277Z,81.17
2023-09-22T18:39:06.049Z,81.82
2023-09-22T18:41:33.102Z,81.22
2023-09-22T18:44:00.104Z,81.58
2023-09-22T18:46:27.204Z,80.92
2023-09-22T18:48:54.147Z,81.26
2023-09-22T18:51:23.644Z,80.86
2023-09-22T18:53:50.489Z,80.71
2023-09-22T18:56:17.351Z,80.89
2023-09-22T18:58:44.507Z,82.39
2023-09-22T19:01:11.562Z,82.13
2023-09-22T19:03:39.081Z,81.72
2023-09-22T19:06:06.018Z,82.09
2023-09-22T19:08:32.786Z,82.18
2023-09-22T19:10:59.845Z,82.91
2023-09-22T19:13:26.945Z,81.55
2023-09-22T19:16:02.382Z,82.00
2023-09-22T19:18:29.965Z,81.33
2023-09-22T19:21:01.606Z,80.99
2023-09-22T19:23:28.302Z,80.68
2023-09-22T19:25:55.066Z,80.36
2023-09-22T19:28:22.022Z,80.73
2023-09-22T19:30:50.355Z,80.56
2023-09-22T19:33:17.673Z,79.90
2023-09-22T19:35:44.588Z,79.48
2023-09-22T19:38:11.452Z,81.06
2023-09-22T19:40:39.279Z,82.72
2023-09-22T19:43:06.783Z,81.27
2023-09-22T19:45:34.752Z,81.44
2023-09-22T19:48:02.261Z,80.91
2023-09-22T19:50:29.391Z,82.43
2023-09-22T19:52:56.370Z,81.28
2023-09-22T19:55:24.286Z,82.08
2023-09-22T19:57:52.389Z,81.96
2023-09-22T20:00:20.119Z,82.09
2023-09-22T20:02:47.898Z,82.29
2023-09-22T20:05:16.469Z,81.55
2023-09-22T20:07:44.501Z,83.17
2023-09-22T20:10:15.998Z,81.83
2023-09-22T20:12:43.556Z,83.68
2023-09-22T20:15:12.482Z,81.92
2023-09-22T20:17:40.240Z,82.36
2023-09-22T20:20:11.588Z,81.39
2023-09-22T20:22:39.186Z,82.02
2023-09-22T20:25:07.119Z,82.15
2023-09-22T20:27:34.470Z,82.52
2023-09-22T20:30:01.341Z,83.92
2023-09-22T20:32:28.306Z,82.58
2023-09-22T20:34:56.130Z,81.71
2023-09-22T20:37:23.053Z,82.20
2023-09-22T20:39:52.076Z,84.24
2023-09-22T20:42:37.439Z,82.46
2023-09-22T20:45:26.129Z,84.14
2023-09-22T20:47:58.518Z,83.91
2023-09-22T20:50:27.984Z,82.73
2023-09-22T20:52:55.035Z,82.20
2023-09-22T20:55:21.804Z,81.89
2023-09-22T20:57:48.693Z,81.96
2023-09-22T21:00:24.093Z,81.47
2023-09-22T21:02:51.016Z,82.13
2023-09-22T21:05:18.007Z,81.24
2023-09-22T21:07:45.078Z,81.82
2023-09-22T21:10:11.875Z,82.27
2023-09-22T21:12:38.923Z,82.34
2023-09-22T21:15:06.113Z,82.34
2023-09-22T21:17:32.983Z,80.98
2023-09-22T21:19:59.914Z,82.53
2023-09-22T21:22:26.711Z,82.09
2023-09-22T21:24:53.851Z,82.25
2023-09-22T21:27:20.841Z,83.13
2023-09-22T21:29:48.440Z,82.61
2023-09-22T21:32:15.392Z,81.92
2023-09-22T21:34:42.623Z,81.39
2023-09-22T21:37:09.470Z,81.66
2023-09-22T21:39:36.243Z,82.19
2023-09-22T21:42:03.010Z,81.13
2023-09-22T21:44:29.770Z,81.41
2023-09-22T21:46:56.620Z,81.84
2023-09-22T21:49:23.504Z,81.03
2023-09-22T21:51:50.416Z,81.83
2023-09-22T21:54:17.445Z,82.08
2023-09-22T21:56:44.269Z,81.57
2023-09-22T21:59:11.011Z,81.53
2023-09-22T22:01:37.852Z,82.40
2023-09-22T22:04:05.721Z,80.92
2023-09-22T22:06:35.113Z,80.67
2023-09-22T22:09:12.356Z,80.49
2023-09-22T22:11:41.776Z,79.71
2023-09-22T22:14:14.457Z,80.52
2023-09-22T22:16:41.997Z,80.28
2023-09-22T22:19:10.833Z,80.32
2023-09-22T22:21:38.038Z,80.39
2023-09-22T22:24:06.216Z,78.42
2023-09-22T22:26:34.185Z,79.89
2023-09-22T22:29:00.965Z,78.17
2023-09-22T22:31:28.141Z,78.62
2023-09-22T22:33:54.957Z,79.55
2023-09-22T22:36:21.769Z,79.54
2023-09-22T22:38:49.471Z,79.38
2023-09-22T22:41:16.848Z,78.34
2023-09-22T22:43:43.771Z,79.42
2023-09-22T22:46:11.292Z,78.16
2023-09-22T22:48:38.920Z,77.99
2023-09-22T22:51:05.680Z,77.14
2023-09-22T22:53:32.536Z,76.45
2023-09-22T22:56:00.291Z,77.94
2023-09-22T22:58:27.938Z,77.26
2023-09-22T23:01:00.197Z,76.38
2023-09-22T23:03:31.146Z,75.94
2023-09-22T23:05:58.417Z,76.33
2023-09-22T23:08:25.873Z,76.76
2023-09-22T23:11:06.079Z,78.03
2023-09-22T23:13:36.353Z,76.26
2023-09-22T23:16:04.953Z,77.52
2023-09-22T23:18:34.446Z,76.93
2023-09-22T23:21:01.375Z,77.07
2023-09-22T23:23:30.957Z,76.81
2023-09-22T23:25:59.942Z,77.00
2023-09-22T23:28:26.804Z,76.53
2023-09-22T23:30:54.639Z,76.80
2023-09-22T23:33:24.559Z,76.15
2023-09-22T23:35:52.411Z,75.90
2023-09-22T23:38:25.190Z,75.84
2023-09-22T23:40:53.103Z,75.70
2023-09-22T23:43:24.383Z,75.02
2023-09-22T23:45:52.866Z,74.69
2023-09-22T23:48:19.707Z,75.37
2023-09-22T23:50:47.714Z,75.19
2023-09-22T23:53:14.505Z,75.05
2023-09-22T23:55:41.184Z,75.47
2023-09-22T23:58:10.248Z,75.84
